Time;durP1;ratioP1;P1;durP2;ratioP2;P2;SDS_P1;SDS_P2;PMS_P1;PMS_P2;Temp;Humidity;BMP_temperature;BMP_pressure;BME280_temperature;BME280_humidity;BME280_pressure;Samples;Min_cycle;Max_cycle;Signal;HPM_P1;HPM_P2
2021/04/27 00:00:19;;;;;;;3.95;2.45;;;5.90;62.10;;;;;;4992078;28;20455;-62
2021/04/27 00:02:44;;;;;;;4.22;2.15;;;6.00;61.70;;;;;;4989524;28;20445;-62
2021/04/27 00:05:14;;;;;;;3.47;2.28;;;6.00;61.70;;;;;;5000063;28;20483;-62
2021/04/27 00:07:40;;;;;;;6.10;2.55;;;6.00;61.20;;;;;;4991518;28;20030;-62
2021/04/27 00:10:09;;;;;;;8.10;2.50;;;6.00;61.40;;;;;;4987127;28;20026;-62
2021/04/27 00:12:35;;;;;;;6.55;1.85;;;6.10;60.90;;;;;;4991952;28;20031;-62
2021/04/27 00:15:02;;;;;;;5.65;2.15;;;6.20;60.60;;;;;;4995464;28;20033;-62
2021/04/27 00:17:27;;;;;;;3.63;2.63;;;6.20;61.30;;;;;;5000965;28;20072;-62
2021/04/27 00:19:53;;;;;;;6.55;2.30;;;6.10;60.40;;;;;;4986707;28;20435;-62
2021/04/27 00:22:18;;;;;;;3.63;2.20;;;6.10;60.70;;;;;;4992546;28;20034;-61
2021/04/27 00:24:44;;;;;;;9.60;2.20;;;6.10;60.90;;;;;;4990691;28;20026;-61
2021/04/27 00:27:10;;;;;;;3.95;2.45;;;6.10;61.60;;;;;;4998722;28;20117;-62
2021/04/27 00:29:36;;;;;;;7.00;2.05;;;6.00;61.70;;;;;;5003201;28;20026;-63
2021/04/27 00:32:03;;;;;;;7.20;2.40;;;6.00;61.80;;;;;;4999718;28;20603;-62
2021/04/27 00:34:28;;;;;;;4.68;2.58;;;6.00;61.70;;;;;;4988292;28;20084;-63
2021/04/27 00:36:54;;;;;;;5.38;2.95;;;6.00;61.90;;;;;;4999077;28;20026;-61
2021/04/27 00:39:19;;;;;;;4.57;2.45;;;6.00;61.70;;;;;;4996414;28;20048;-63
2021/04/27 00:41:46;;;;;;;8.52;2.17;;;6.00;62.30;;;;;;5000824;28;20055;-62
2021/04/27 00:44:12;;;;;;;3.85;2.35;;;5.90;62.20;;;;;;4986558;28;20784;-62
2021/04/27 00:46:37;;;;;;;6.05;2.10;;;5.90;62.50;;;;;;4995255;28;20037;-62
2021/04/27 00:49:03;;;;;;;7.15;2.75;;;5.80;63.10;;;;;;4999005;28;20763;-62
2021/04/27 00:51:29;;;;;;;6.03;2.45;;;5.80;64.30;;;;;;4991780;28;20034;-63
2021/04/27 00:53:55;;;;;;;5.50;2.53;;;5.70;63.60;;;;;;4996036;28;20037;-61
2021/04/27 00:56:22;;;;;;;5.55;2.20;;;5.70;65.00;;;;;;4993381;28;20017;-62
2021/04/27 00:58:48;;;;;;;10.23;2.35;;;5.60;65.10;;;;;;4991300;28;20502;-63
2021/04/27 01:01:13;;;;;;;7.63;2.63;;;5.60;65.00;;;;;;4993437;28;20034;-62
2021/04/27 01:03:40;;;;;;;3.50;2.28;;;5.60;64.90;;;;;;4994392;28;20034;-62
2021/04/27 01:06:07;;;;;;;7.95;2.92;;;5.50;64.50;;;;;;4998873;28;20440;-62
2021/04/27 01:08:56;;;;;;;3.60;2.13;;;5.60;64.50;;;;;;4995155;28;20093;-62
2021/04/27 01:11:30;;;;;;;6.15;2.60;;;5.60;65.50;;;;;;4994776;28;20026;-61
2021/04/27 01:14:14;;;;;;;4.25;2.00;;;5.50;65.40;;;;;;4993627;28;20081;-63
2021/04/27 01:16:47;;;;;;;3.60;2.15;;;5.50;65.50;;;;;;4989590;28;20025;-61
2021/04/27 01:19:17;;;;;;;9.77;2.80;;;5.40;65.10;;;;;;4995934;28;20046;-62
2021/04/27 01:21:44;;;;;;;6.22;2.67;;;5.40;65.60;;;;;;4997954;28;20076;-61
2021/04/27 01:24:18;;;;;;;3.35;1.90;;;5.40;65.30;;;;;;4992392;28;20395;-62
2021/04/27 01:26:52;;;;;;;4.30;2.00;;;5.40;65.50;;;;;;5001169;28;20149;-62
2021/04/27 01:29:22;;;;;;;9.15;2.22;;;5.40;65.40;;;;;;4995994;28;20105;-62
2021/04/27 01:31:50;;;;;;;7.35;1.88;;;5.40;65.90;;;;;;4997506;28;20030;-62
2021/04/27 01:34:26;;;;;;;3.60;1.95;;;5.30;65.40;;;;;;4990155;28;20037;-62
2021/04/27 01:36:53;;;;;;;9.02;2.47;;;5.40;64.80;;;;;;4989516;28;20754;-62
2021/04/27 01:39:20;;;;;;;6.03;2.75;;;5.40;65.90;;;;;;4997631;28;20097;-62
2021/04/27 01:41:47;;;;;;;5.40;1.90;;;5.40;65.10;;;;;;4998502;28;20038;-62
2021/04/27 01:44:14;;;;;;;3.33;2.15;;;5.40;65.40;;;;;;4993826;28;20045;-62
2021/04/27 01:46:41;;;;;;;7.80;2.22;;;5.40;65.70;;;;;;4998291;28;20090;-63
2021/04/27 01:49:07;;;;;;;4.80;1.90;;;5.40;66.30;;;;;;5003842;28;20424;-62
2021/04/27 01:51:33;;;;;;;6.47;2.25;;;5.30;66.30;;;;;;4994139;28;20030;-62
2021/04/27 01:53:58;;;;;;;3.22;2.03;;;5.30;66.10;;;;;;4998025;28;20037;-61
2021/04/27 01:56:24;;;;;;;3.83;2.33;;;5.30;66.10;;;;;;4989207;28;20034;-63
2021/04/27 01:58:51;;;;;;;6.13;2.13;;;5.20;67.20;;;;;;4991361;28;20030;-62
2021/04/27 02:01:17;;;;;;;3.97;2.35;;;5.10;67.30;;;;;;4996587;28;20060;-62
2021/04/27 02:03:47;;;;;;;5.07;2.30;;;5.10;67.20;;;;;;4997544;28;20480;-62
2021/04/27 02:06:13;;;;;;;8.82;1.85;;;5.10;67.60;;;;;;4993548;28;20096;-62
2021/04/27 02:08:41;;;;;;;7.50;2.30;;;5.00;67.80;;;;;;4997774;28;20041;-63
2021/04/27 02:11:07;;;;;;;3.95;2.20;;;5.00;67.30;;;;;;4995561;28;20092;-63
2021/04/27 02:13:34;;;;;;;7.53;2.47;;;5.00;68.00;;;;;;4996497;28;20034;-63
2021/04/27 02:16:01;;;;;;;6.97;2.20;;;5.00;67.50;;;;;;5000692;28;20033;-62
2021/04/27 02:18:49;;;;;;;5.55;2.00;;;5.00;67.80;;;;;;4994175;28;20041;-63
2021/04/27 02:21:18;;;;;;;5.15;2.38;;;4.90;68.30;;;;;;4999426;28;20037;-62
2021/04/27 02:23:44;;;;;;;3.75;2.33;;;4.90;68.90;;;;;;5005065;28;20030;-63
2021/04/27 02:26:13;;;;;;;4.65;1.88;;;4.90;68.50;;;;;;5003241;28;20120;-63
2021/04/27 02:28:41;;;;;;;6.22;2.10;;;4.90;69.10;;;;;;5003551;28;20042;-62
2021/04/27 02:31:07;;;;;;;5.20;1.90;;;4.90;68.10;;;;;;5001308;28;20054;-62
2021/04/27 02:33:34;;;;;;;7.05;2.67;;;4.90;68.00;;;;;;4997969;28;20034;-62
2021/04/27 02:36:01;;;;;;;4.30;2.15;;;4.90;68.40;;;;;;4993143;28;20026;-63
2021/04/27 02:38:26;;;;;;;5.60;3.15;;;4.80;68.60;;;;;;4992812;28;20034;-63
2021/04/27 02:40:57;;;;;;;7.75;2.05;;;4.80;69.10;;;;;;4993109;28;20030;-62
2021/04/27 02:43:24;;;;;;;7.15;2.42;;;4.70;69.80;;;;;;4998523;28;20116;-62
2021/04/27 02:45:50;;;;;;;8.13;2.90;;;4.60;70.30;;;;;;5000075;28;20030;-62
2021/04/27 02:48:19;;;;;;;6.03;2.17;;;4.60;70.10;;;;;;4996472;28;20030;-62
2021/04/27 02:50:47;;;;;;;4.90;1.90;;;4.60;69.90;;;;;;4996662;28;20041;-62
2021/04/27 02:53:14;;;;;;;7.93;2.00;;;4.70;70.20;;;;;;4992133;28;20026;-62
2021/04/27 02:55:41;;;;;;;3.20;1.98;;;4.60;70.10;;;;;;4996607;28;20097;-62
2021/04/27 02:58:07;;;;;;;3.55;2.08;;;4.60;70.60;;;;;;5003997;28;20044;-62
2021/04/27 03:00:33;;;;;;;5.72;2.03;;;4.60;70.30;;;;;;4998240;28;20046;-62
2021/04/27 03:02:59;;;;;;;8.00;2.60;;;4.60;71.30;;;;;;5001129;28;20423;-63
2021/04/27 03:05:25;;;;;;;3.28;1.88;;;4.60;71.20;;;;;;4996693;28;20053;-61
2021/04/27 03:07:50;;;;;;;4.57;1.80;;;4.50;71.40;;;;;;4995798;28;20035;-61
2021/04/27 03:10:16;;;;;;;6.18;2.00;;;4.50;70.90;;;;;;4995354;28;20069;-63
2021/04/27 03:12:42;;;;;;;2.95;1.92;;;4.40;72.00;;;;;;5006273;28;20025;-63
2021/04/27 03:15:08;;;;;;;4.97;1.90;;;4.40;72.40;;;;;;4996118;28;20034;-61
2021/04/27 03:17:34;;;;;;;7.22;2.13;;;4.40;73.70;;;;;;4992157;28;20512;-63
2021/04/27 03:20:00;;;;;;;7.05;2.10;;;4.40;72.60;;;;;;5005132;28;20064;-62
2021/04/27 03:22:26;;;;;;;4.53;2.13;;;4.30;73.70;;;;;;5002387;28;20065;-62
2021/04/27 03:24:51;;;;;;;7.15;2.25;;;4.30;73.20;;;;;;4996727;28;20042;-63
2021/04/27 03:27:19;;;;;;;2.72;1.63;;;4.40;72.90;;;;;;5000965;28;20072;-60
2021/04/27 03:29:45;;;;;;;5.38;1.80;;;4.40;72.20;;;;;;5005633;28;20029;-62
2021/04/27 03:32:10;;;;;;;6.25;2.40;;;4.40;72.50;;;;;;4993318;28;20030;-62
2021/04/27 03:34:36;;;;;;;4.20;1.95;;;4.50;71.90;;;;;;5000492;28;20022;-62
2021/04/27 03:37:02;;;;;;;6.18;2.28;;;4.40;72.00;;;;;;4990706;28;20034;-62
2021/04/27 03:39:28;;;;;;;6.80;2.10;;;4.40;72.60;;;;;;4992424;28;20038;-62
2021/04/27 03:41:53;;;;;;;5.20;2.15;;;4.30;73.50;;;;;;5002265;28;20038;-62
2021/04/27 03:44:19;;;;;;;3.15;1.75;;;4.20;74.10;;;;;;4995167;28;20399;-62
2021/04/27 03:46:45;;;;;;;3.20;1.63;;;4.20;73.70;;;;;;5005883;28;20038;-61
2021/04/27 03:49:11;;;;;;;10.23;1.70;;;4.10;74.10;;;;;;4999263;28;20030;-62
2021/04/27 03:51:37;;;;;;;5.68;2.22;;;4.10;73.80;;;;;;5005835;28;20133;-62
2021/04/27 03:54:03;;;;;;;6.20;2.15;;;4.20;73.20;;;;;;5000787;28;20029;-62
2021/04/27 03:56:29;;;;;;;4.80;1.80;;;4.20;73.50;;;;;;4991316;28;20022;-62
2021/04/27 03:58:54;;;;;;;4.00;1.90;;;4.20;74.90;;;;;;4999579;28;20824;-58
2021/04/27 04:01:20;;;;;;;6.72;2.17;;;4.10;74.80;;;;;;4997335;28;20037;-62
2021/04/27 04:03:46;;;;;;;13.10;3.15;;;4.10;74.50;;;;;;4999452;28;20022;-62
2021/04/27 04:06:12;;;;;;;4.63;1.98;;;4.00;75.40;;;;;;4998530;28;20053;-63
2021/04/27 04:08:37;;;;;;;5.50;2.00;;;3.90;76.10;;;;;;4996892;28;20450;-63
2021/04/27 04:11:03;;;;;;;5.85;1.90;;;3.90;76.80;;;;;;4990941;28;20030;-62
2021/04/27 04:13:29;;;;;;;7.20;2.35;;;3.80;76.60;;;;;;4999692;28;20109;-63
2021/04/27 04:15:55;;;;;;;6.45;1.63;;;3.90;77.10;;;;;;4995208;28;20734;-62
2021/04/27 04:18:21;;;;;;;6.32;2.10;;;3.80;76.70;;;;;;4995429;28;20038;-62
2021/04/27 04:20:48;;;;;;;5.82;1.70;;;3.80;77.50;;;;;;4989692;28;20049;-61
2021/04/27 04:23:15;;;;;;;3.25;1.83;;;3.80;78.10;;;;;;5002755;28;20058;-63
2021/04/27 04:25:41;;;;;;;8.60;2.35;;;3.80;76.50;;;;;;4998768;28;20029;-57
2021/04/27 04:28:07;;;;;;;2.72;1.98;;;3.80;77.40;;;;;;5000673;28;20503;-63
2021/04/27 04:30:33;;;;;;;5.82;2.03;;;3.80;77.30;;;;;;4993967;28;20033;-64
2021/04/27 04:32:59;;;;;;;3.45;1.83;;;3.90;78.70;;;;;;5000204;28;20027;-63
2021/04/27 04:35:27;;;;;;;3.05;1.85;;;3.90;78.30;;;;;;4994709;28;20101;-58
2021/04/27 04:37:52;;;;;;;4.68;2.17;;;3.90;77.40;;;;;;4990125;28;20110;-59
2021/04/27 04:40:19;;;;;;;3.75;1.60;;;4.00;77.50;;;;;;5005204;28;20598;-61
2021/04/27 04:42:45;;;;;;;3.17;1.92;;;4.00;78.20;;;;;;4978429;28;20030;-59
2021/04/27 04:45:12;;;;;;;2.28;1.40;;;4.10;77.30;;;;;;4991525;28;20499;-62
2021/04/27 04:47:38;;;;;;;5.10;1.75;;;4.10;77.70;;;;;;4990309;28;20563;-61
2021/04/27 04:50:06;;;;;;;4.80;1.73;;;4.10;77.10;;;;;;4988224;28;20109;-58
2021/04/27 04:52:32;;;;;;;2.80;1.58;;;4.10;77.90;;;;;;4993900;28;20034;-62
2021/04/27 04:54:57;;;;;;;5.78;2.25;;;4.20;76.90;;;;;;4998860;28;20027;-63
2021/04/27 04:57:23;;;;;;;4.47;1.77;;;4.30;78.10;;;;;;4998007;28;20399;-63
2021/04/27 04:59:49;;;;;;;3.08;1.67;;;4.40;76.70;;;;;;4994094;28;20034;-63
2021/04/27 05:02:15;;;;;;;8.05;1.98;;;4.50;77.40;;;;;;4996979;28;20030;-63
2021/04/27 05:04:40;;;;;;;4.05;1.58;;;5.10;77.00;;;;;;5002055;28;20091;-64
2021/04/27 05:07:10;;;;;;;2.83;1.45;;;6.30;73.00;;;;;;5000869;28;20054;-64
2021/04/27 05:09:35;;;;;;;2.45;1.60;;;8.00;65.60;;;;;;5000173;28;20045;-63
2021/04/27 05:12:02;;;;;;;4.15;1.52;;;9.70;58.70;;;;;;4998458;28;20064;-64
2021/04/27 05:14:28;;;;;;;3.95;1.92;;;11.00;55.50;;;;;;4996195;28;20026;-61
2021/04/27 05:16:53;;;;;;;1.95;1.58;;;12.20;51.50;;;;;;4989258;28;20030;-62
2021/04/27 05:19:19;;;;;;;4.75;2.13;;;12.80;48.50;;;;;;4989957;28;20032;-62
2021/04/27 05:21:45;;;;;;;3.28;1.73;;;13.30;45.60;;;;;;4987890;28;20084;-63
2021/04/27 05:24:11;;;;;;;7.13;1.80;;;14.60;42.60;;;;;;4989955;28;20026;-62
2021/04/27 05:26:37;;;;;;;4.07;1.75;;;14.80;44.50;;;;;;4990122;28;20030;-62
2021/04/27 05:29:02;;;;;;;5.13;2.17;;;15.00;43.80;;;;;;4998294;28;20077;-63
2021/04/27 05:31:28;;;;;;;11.48;2.55;;;15.10;42.50;;;;;;4996664;28;20069;-63
2021/04/27 05:33:54;;;;;;;4.47;1.85;;;15.50;40.70;;;;;;5000055;28;20030;-63
2021/04/27 05:36:19;;;;;;;3.45;2.20;;;16.50;40.00;;;;;;4991541;28;20109;-62
2021/04/27 05:38:45;;;;;;;3.35;2.00;;;16.50;39.30;;;;;;4990316;28;20038;-63
2021/04/27 05:41:11;;;;;;;7.75;2.65;;;17.10;37.30;;;;;;4996739;28;20052;-64
2021/04/27 05:43:37;;;;;;;7.10;2.20;;;17.10;38.30;;;;;;4997971;28;20042;-61
2021/04/27 05:46:02;;;;;;;5.90;2.17;;;17.30;37.70;;;;;;5001512;28;20018;-62
2021/04/27 05:48:28;;;;;;;3.83;1.70;;;17.40;37.60;;;;;;5003371;28;20376;-63
2021/04/27 05:50:54;;;;;;;3.60;2.30;;;17.60;37.50;;;;;;4995752;28;20029;-64
2021/04/27 05:53:19;;;;;;;4.82;2.47;;;17.90;36.50;;;;;;4998637;28;20871;-64
2021/04/27 05:55:45;;;;;;;3.15;1.60;;;18.30;35.00;;;;;;4995947;28;20040;-64
2021/04/27 05:58:11;;;;;;;6.97;2.22;;;18.00;33.80;;;;;;4993096;28;20018;-63
2021/04/27 06:00:37;;;;;;;5.47;1.70;;;18.20;35.80;;;;;;4998597;28;20066;-63
2021/04/27 06:03:03;;;;;;;3.45;1.63;;;18.00;34.40;;;;;;4996831;28;20475;-63
2021/04/27 06:05:29;;;;;;;4.13;1.70;;;17.80;33.90;;;;;;5003401;28;20042;-62
2021/04/27 06:07:55;;;;;;;3.25;1.67;;;18.90;33.50;;;;;;5001703;28;20030;-64
2021/04/27 06:10:21;;;;;;;3.65;1.50;;;19.50;34.00;;;;;;4997982;28;20024;-63
2021/04/27 06:12:46;;;;;;;3.75;2.13;;;19.70;33.10;;;;;;5005960;28;20628;-64
2021/04/27 06:15:12;;;;;;;8.07;1.55;;;19.70;32.40;;;;;;4989824;28;20073;-62
2021/04/27 06:17:39;;;;;;;2.85;1.83;;;19.00;33.80;;;;;;4991997;28;20034;-64
2021/04/27 06:20:07;;;;;;;3.25;1.83;;;18.50;33.60;;;;;;4994954;28;20101;-62
2021/04/27 06:22:32;;;;;;;3.50;1.60;;;18.70;34.70;;;;;;4991826;28;20555;-63
2021/04/27 06:24:58;;;;;;;5.72;1.83;;;19.30;33.00;;;;;;4992802;28;20122;-63
2021/04/27 06:27:27;;;;;;;3.55;1.73;;;19.70;31.70;;;;;;4991231;28;20038;-63
2021/04/27 06:29:53;;;;;;;5.35;1.70;;;19.80;32.20;;;;;;5001245;28;20014;-63
2021/04/27 06:32:19;;;;;;;2.75;1.90;;;19.20;31.00;;;;;;4998467;28;20026;-63
2021/04/27 06:34:45;;;;;;;5.80;1.85;;;18.80;31.30;;;;;;4996306;28;20037;-63
2021/04/27 06:37:10;;;;;;;6.90;2.05;;;19.60;32.70;;;;;;4992504;28;20146;-62
2021/04/27 06:39:37;;;;;;;7.13;2.03;;;18.90;31.60;;;;;;4996753;28;20460;-63
2021/04/27 06:42:03;;;;;;;3.50;2.13;;;19.70;31.10;;;;;;4994989;28;20026;-63
2021/04/27 06:44:28;;;;;;;2.17;1.52;;;19.90;31.20;;;;;;5000941;28;20469;-63
2021/04/27 06:46:54;;;;;;;2.80;1.98;;;19.30;31.10;;;;;;4992149;28;20027;-62
2021/04/27 06:49:19;;;;;;;2.20;1.40;;;19.60;31.30;;;;;;4989917;28;20492;-63
2021/04/27 06:51:45;;;;;;;5.68;1.70;;;20.40;30.40;;;;;;4997327;28;20692;-64
2021/04/27 06:54:10;;;;;;;3.55;1.80;;;20.40;31.40;;;;;;5004130;28;20034;-63
2021/04/27 06:56:36;;;;;;;3.80;2.08;;;20.60;29.30;;;;;;4995119;28;20381;-63
2021/04/27 06:59:01;;;;;;;3.22;1.60;;;20.90;29.70;;;;;;4990234;28;20610;-64
2021/04/27 07:01:27;;;;;;;3.00;1.65;;;20.90;30.30;;;;;;4969867;28;20043;-62
2021/04/27 07:03:53;;;;;;;3.00;1.80;;;21.00;29.50;;;;;;4993627;28;20085;-63
2021/04/27 07:06:18;;;;;;;3.95;1.60;;;20.90;29.50;;;;;;5001339;28;20033;-63
2021/04/27 07:08:44;;;;;;;5.70;2.03;;;20.80;29.90;;;;;;4995945;28;20484;-63
2021/04/27 07:11:10;;;;;;;2.20;1.52;;;20.30;29.50;;;;;;4997153;28;20030;-63
2021/04/27 07:13:36;;;;;;;1.92;1.42;;;20.30;31.20;;;;;;4996406;28;20040;-63
2021/04/27 07:16:02;;;;;;;8.45;1.77;;;20.80;30.40;;;;;;4998358;28;20547;-62
2021/04/27 07:18:27;;;;;;;3.97;1.55;;;21.30;29.90;;;;;;4991494;28;20036;-64
2021/04/27 07:20:53;;;;;;;4.07;1.73;;;21.80;29.30;;;;;;5000502;28;20033;-64
2021/04/27 07:23:19;;;;;;;4.75;1.88;;;21.20;28.70;;;;;;5002789;28;20084;-63
2021/04/27 07:25:45;;;;;;;3.90;1.90;;;21.10;29.50;;;;;;4994746;28;20720;-63
2021/04/27 07:28:11;;;;;;;10.07;1.73;;;21.00;29.00;;;;;;4993974;28;20030;-62
2021/04/27 07:30:37;;;;;;;4.20;1.60;;;21.70;28.90;;;;;;4999794;28;20038;-62
2021/04/27 07:33:04;;;;;;;1.90;1.60;;;21.80;29.00;;;;;;4997537;28;20022;-63
2021/04/27 07:35:30;;;;;;;4.28;1.70;;;21.70;29.10;;;;;;4990943;28;20018;-62
2021/04/27 07:38:00;;;;;;;2.47;1.77;;;21.50;29.20;;;;;;4988514;28;20102;-62
2021/04/27 07:40:27;;;;;;;3.95;1.90;;;21.40;28.80;;;;;;4982509;28;20058;-64
2021/04/27 07:42:53;;;;;;;8.77;2.03;;;22.10;28.60;;;;;;4990899;28;20046;-64
2021/04/27 07:45:18;;;;;;;4.13;1.52;;;22.10;29.60;;;;;;4991035;28;20038;-62
2021/04/27 07:47:44;;;;;;;1.75;1.45;;;22.30;28.80;;;;;;4991575;28;20028;-64
2021/04/27 07:50:10;;;;;;;3.15;1.75;;;22.30;28.00;;;;;;4992166;28;20031;-64
2021/04/27 07:52:38;;;;;;;3.58;1.80;;;22.10;28.50;;;;;;4990551;28;20503;-63
2021/04/27 07:55:05;;;;;;;7.63;1.90;;;21.50;29.10;;;;;;4993230;28;20046;-63
2021/04/27 07:57:30;;;;;;;4.53;2.00;;;21.90;28.70;;;;;;4990524;28;20806;-63
2021/04/27 07:59:56;;;;;;;4.40;1.88;;;22.20;29.30;;;;;;4995609;28;20101;-64
2021/04/27 08:02:22;;;;;;;7.10;1.50;;;22.00;29.10;;;;;;4969288;28;20050;-63
2021/04/27 08:04:47;;;;;;;4.00;1.80;;;22.00;29.20;;;;;;4999697;28;20014;-62
2021/04/27 08:07:13;;;;;;;4.18;1.65;;;22.80;29.00;;;;;;4988968;28;20053;-62
2021/04/27 08:09:39;;;;;;;6.00;1.63;;;23.40;28.70;;;;;;4984965;28;20042;-63
2021/04/27 08:12:05;;;;;;;2.30;1.70;;;22.40;27.50;;;;;;4990224;28;20037;-62
2021/04/27 08:14:31;;;;;;;3.22;1.67;;;22.60;28.80;;;;;;4995772;28;20396;-64
2021/04/27 08:16:56;;;;;;;4.53;1.73;;;22.70;28.50;;;;;;5000399;28;20029;-64
2021/04/27 08:19:22;;;;;;;2.63;1.50;;;22.70;28.40;;;;;;5001617;28;20038;-63
2021/04/27 08:21:48;;;;;;;3.47;1.70;;;23.00;28.90;;;;;;4996885;28;20025;-62
2021/04/27 08:24:14;;;;;;;1.73;1.38;;;23.00;27.90;;;;;;4998398;28;20030;-64
2021/04/27 08:26:39;;;;;;;4.65;2.00;;;23.60;27.90;;;;;;4996041;28;20018;-64
2021/04/27 08:29:05;;;;;;;3.47;1.70;;;23.30;28.10;;;;;;4989588;28;20026;-59
2021/04/27 08:31:30;;;;;;;4.72;1.58;;;23.30;28.30;;;;;;4998936;28;20030;-64
2021/04/27 08:33:56;;;;;;;4.55;1.75;;;23.20;27.80;;;;;;4993395;28;20023;-63
2021/04/27 08:36:22;;;;;;;6.38;1.92;;;23.80;27.30;;;;;;5000269;28;20562;-64
2021/04/27 08:38:47;;;;;;;3.88;1.90;;;23.70;27.00;;;;;;4992654;28;20031;-61
2021/04/27 08:41:13;;;;;;;3.38;1.50;;;23.50;27.60;;;;;;4992521;28;20029;-62
2021/04/27 08:43:39;;;;;;;3.60;1.90;;;23.30;28.00;;;;;;4992467;28;20060;-62
2021/04/27 08:46:05;;;;;;;8.20;1.80;;;23.30;28.10;;;;;;4998189;28;20034;-63
2021/04/27 08:48:31;;;;;;;7.20;1.83;;;23.30;28.20;;;;;;4991390;28;20026;-64
2021/04/27 08:50:57;;;;;;;6.20;2.00;;;23.30;27.60;;;;;;4995945;28;20081;-64
2021/04/27 08:53:22;;;;;;;3.25;1.70;;;23.00;28.40;;;;;;4997290;28;20026;-64
2021/04/27 08:55:50;;;;;;;11.00;2.47;;;22.60;28.30;;;;;;4985086;28;20034;-62
2021/04/27 08:58:16;;;;;;;5.40;1.80;;;23.00;28.20;;;;;;4987452;28;20026;-64
2021/04/27 09:00:43;;;;;;;2.60;1.60;;;23.20;27.80;;;;;;4975254;28;20038;-63
2021/04/27 09:03:11;;;;;;;4.10;1.85;;;23.80;27.70;;;;;;4990905;28;20026;-64
2021/04/27 09:05:40;;;;;;;4.60;1.65;;;23.80;27.20;;;;;;4990716;28;20801;-63
2021/04/27 09:08:06;;;;;;;3.20;1.42;;;23.20;27.90;;;;;;4990276;28;20088;-63
2021/04/27 09:10:34;;;;;;;3.20;1.70;;;22.50;29.50;;;;;;4990818;28;20023;-63
2021/04/27 09:13:07;;;;;;;5.43;2.00;;;22.40;28.70;;;;;;4990634;28;20014;-64
2021/04/27 09:15:36;;;;;;;5.50;1.90;;;22.30;28.30;;;;;;4990655;28;20018;-63
2021/04/27 09:18:25;;;;;;;4.25;1.70;;;22.70;29.00;;;;;;4987162;28;20026;-62
2021/04/27 09:20:53;;;;;;;6.75;1.70;;;22.80;28.20;;;;;;4993485;28;20113;-63
2021/04/27 09:23:19;;;;;;;6.22;1.60;;;22.30;27.70;;;;;;4994127;28;20444;-62
2021/04/27 09:26:14;;;;;;;3.17;1.92;;;22.70;27.30;;;;;;5001618;28;20038;-64
2021/04/27 09:28:48;;;;;;;4.38;1.92;;;22.70;27.80;;;;;;4990994;28;20069;-63
2021/04/27 09:31:27;;;;;;;2.97;1.63;;;22.40;26.80;;;;;;4986455;28;20113;-63
2021/04/27 09:33:54;;;;;;;2.33;2.05;;;21.60;29.10;;;;;;4995981;28;20026;-63
2021/04/27 09:36:24;;;;;;;2.50;1.65;;;21.90;27.80;;;;;;5001965;28;20038;-62
2021/04/27 09:38:54;;;;;;;3.47;2.13;;;21.60;28.80;;;;;;4989875;28;20023;-63
2021/04/27 09:41:26;;;;;;;4.40;2.15;;;21.60;28.70;;;;;;5004918;28;20032;-64
2021/04/27 09:43:53;;;;;;;3.47;2.20;;;21.50;28.30;;;;;;4995532;28;20505;-63
2021/04/27 09:46:22;;;;;;;4.53;2.00;;;21.50;28.70;;;;;;4990282;28;20463;-64
2021/04/27 09:48:54;;;;;;;2.80;1.98;;;20.90;28.80;;;;;;4992169;28;20022;-64
2021/04/27 09:51:29;;;;;;;4.95;2.15;;;21.10;29.70;;;;;;4994211;28;20034;-64
2021/04/27 09:53:58;;;;;;;4.85;2.00;;;21.30;29.10;;;;;;4989654;28;20072;-64
2021/04/27 09:56:42;;;;;;;3.45;2.35;;;20.40;27.90;;;;;;4992270;28;20028;-64
2021/04/27 09:59:21;;;;;;;7.80;2.67;;;20.40;28.30;;;;;;4992884;28;20396;-62
2021/04/27 10:01:58;;;;;;;6.03;3.08;;;20.40;29.40;;;;;;4979182;28;20051;-62
2021/04/27 10:04:28;;;;;;;5.93;3.03;;;20.40;29.00;;;;;;4994205;28;20407;-63
2021/04/27 10:06:55;;;;;;;5.93;2.30;;;20.10;30.70;;;;;;4996185;28;20030;-62
2021/04/27 10:09:21;;;;;;;13.98;2.95;;;20.30;31.60;;;;;;4994561;28;20114;-63
2021/04/27 10:11:48;;;;;;;5.65;2.40;;;19.60;30.10;;;;;;4993900;28;20089;-59
2021/04/27 10:14:14;;;;;;;5.18;2.25;;;19.20;30.80;;;;;;4987412;28;20022;-61
2021/04/27 10:16:39;;;;;;;5.18;2.20;;;19.10;30.50;;;;;;4989368;28;21778;-63
2021/04/27 10:19:07;;;;;;;5.80;2.17;;;19.00;31.90;;;;;;4999852;28;20014;-63
2021/04/27 10:21:33;;;;;;;5.07;2.25;;;19.10;30.20;;;;;;4994864;28;20023;-63
2021/04/27 10:24:01;;;;;;;5.82;2.38;;;18.70;31.10;;;;;;4992355;28;20029;-63
2021/04/27 10:26:29;;;;;;;6.53;2.40;;;18.70;31.10;;;;;;4993662;28;20040;-63
2021/04/27 10:29:14;;;;;;;4.25;2.40;;;18.60;29.90;;;;;;4993877;28;20035;-63
2021/04/27 10:31:41;;;;;;;3.50;2.50;;;18.30;30.00;;;;;;4992982;28;20018;-63
2021/04/27 10:34:09;;;;;;;2.22;1.92;;;18.20;31.40;;;;;;4994497;28;20027;-62
2021/04/27 10:36:50;;;;;;;3.90;2.40;;;17.80;32.50;;;;;;4993003;28;20026;-63
2021/04/27 10:39:17;;;;;;;10.65;2.25;;;17.60;32.60;;;;;;4988961;28;20034;-63
2021/04/27 10:41:56;;;;;;;5.30;2.10;;;17.70;33.40;;;;;;4988659;28;20053;-63
2021/04/27 10:44:23;;;;;;;5.28;2.10;;;17.70;32.10;;;;;;4990145;28;20038;-63
2021/04/27 10:46:49;;;;;;;3.00;2.13;;;17.90;32.00;;;;;;4996297;28;20035;-63
2021/04/27 10:49:20;;;;;;;3.30;2.15;;;17.60;32.20;;;;;;4995564;28;20045;-63
2021/04/27 10:51:47;;;;;;;6.63;1.90;;;17.70;31.80;;;;;;4991824;28;20108;-62
2021/04/27 10:54:15;;;;;;;5.43;2.67;;;17.70;34.40;;;;;;4991878;28;20438;-63
2021/04/27 10:56:53;;;;;;;2.78;2.15;;;17.70;33.00;;;;;;4985585;28;20026;-62
2021/04/27 10:59:28;;;;;;;6.30;2.30;;;17.70;32.30;;;;;;4989317;28;20030;-62
2021/04/27 11:02:10;;;;;;;5.65;2.47;;;17.50;31.10;;;;;;4976565;28;20046;-62
2021/04/27 11:04:44;;;;;;;2.90;2.17;;;17.40;31.70;;;;;;4980975;28;20027;-62
2021/04/27 11:07:30;;;;;;;2.50;2.00;;;17.00;31.80;;;;;;4978513;28;20022;-62
2021/04/27 11:09:59;;;;;;;5.15;2.20;;;17.00;31.50;;;;;;4980596;28;20035;-63
2021/04/27 11:12:34;;;;;;;3.25;2.08;;;17.00;32.10;;;;;;4987284;28;20031;-63
2021/04/27 11:15:09;;;;;;;4.13;1.92;;;17.00;31.90;;;;;;4979380;28;20080;-63
2021/04/27 11:17:39;;;;;;;4.90;2.28;;;16.90;32.30;;;;;;4982480;28;20070;-64
2021/04/27 11:20:10;;;;;;;4.13;2.40;;;16.70;33.80;;;;;;4979609;28;20105;-61
2021/04/27 11:22:49;;;;;;;3.30;2.25;;;16.60;34.00;;;;;;4993880;28;20041;-62
2021/04/27 11:25:32;;;;;;;3.63;2.03;;;16.70;34.40;;;;;;4991261;28;20028;-61
2021/04/27 11:27:58;;;;;;;6.23;2.37;;;16.90;33.00;;;;;;4992039;28;20030;-62
2021/04/27 11:30:33;;;;;;;6.68;2.40;;;16.90;33.10;;;;;;4994772;28;20141;-63
2021/04/27 11:33:07;;;;;;;6.18;2.05;;;17.00;34.30;;;;;;4990967;28;20166;-62
2021/04/27 11:35:40;;;;;;;4.18;2.28;;;16.90;34.80;;;;;;4984605;28;20026;-62
2021/04/27 11:38:06;;;;;;;4.65;2.75;;;16.80;35.20;;;;;;4986342;28;20034;-60
2021/04/27 11:40:38;;;;;;;4.13;2.53;;;16.70;34.40;;;;;;4976181;28;20039;-63
2021/04/27 11:43:12;;;;;;;3.40;2.00;;;16.80;34.90;;;;;;4984811;28;20034;-62
2021/04/27 11:45:44;;;;;;;7.80;2.35;;;16.90;34.40;;;;;;4980144;28;20026;-62
2021/04/27 11:48:12;;;;;;;3.45;1.92;;;16.70;33.30;;;;;;4980191;28;20442;-62
2021/04/27 11:50:38;;;;;;;6.07;2.42;;;16.70;33.60;;;;;;4996571;28;20034;-63
2021/04/27 11:53:11;;;;;;;2.42;2.00;;;16.70;33.10;;;;;;4979959;28;20031;-63
2021/04/27 11:55:44;;;;;;;3.90;2.43;;;16.70;33.50;;;;;;4977367;28;20023;-62
2021/04/27 11:58:19;;;;;;;5.03;2.58;;;16.90;33.20;;;;;;4977068;28;20034;-63
2021/04/27 12:00:53;;;;;;;9.27;2.22;;;16.80;34.60;;;;;;4978548;28;20035;-63
2021/04/27 12:03:33;;;;;;;3.88;2.22;;;16.90;33.70;;;;;;5077855;28;20410;-64
2021/04/27 12:06:16;;;;;;;4.00;2.15;;;16.90;33.50;;;;;;5069855;28;20117;-61
2021/04/27 12:08:43;;;;;;;5.82;2.78;;;16.80;34.50;;;;;;5072719;28;20032;-62
2021/04/27 12:11:30;;;;;;;3.42;2.22;;;16.80;34.80;;;;;;5068200;28;20672;-62
2021/04/27 12:14:02;;;;;;;2.97;2.28;;;16.90;33.30;;;;;;5075110;28;20097;-64
2021/04/27 12:16:32;;;;;;;6.13;2.42;;;17.00;32.20;;;;;;5080470;28;20032;-64
2021/04/27 12:19:02;;;;;;;3.67;2.50;;;16.80;32.60;;;;;;5079962;28;20480;-64
2021/04/27 12:21:54;;;;;;;4.40;3.03;;;16.90;35.00;;;;;;5084599;28;20024;-63
2021/04/27 12:24:22;;;;;;;5.05;2.42;;;16.80;33.80;;;;;;5091500;28;20110;-64
2021/04/27 12:27:00;;;;;;;6.28;2.38;;;16.80;34.50;;;;;;5090259;28;20078;-64
2021/04/27 12:29:34;;;;;;;4.78;2.45;;;16.60;33.10;;;;;;5074654;28;20021;-64
2021/04/27 12:32:08;;;;;;;4.80;2.85;;;16.80;34.10;;;;;;5079046;28;20029;-62
2021/04/27 12:34:34;;;;;;;3.08;2.30;;;16.70;32.30;;;;;;5079949;28;20064;-63
2021/04/27 12:37:00;;;;;;;5.22;2.30;;;16.60;33.10;;;;;;5082772;28;20564;-63
2021/04/27 12:39:33;;;;;;;6.32;2.55;;;16.40;32.80;;;;;;5094823;28;20516;-60
2021/04/27 12:42:02;;;;;;;3.33;2.22;;;16.20;33.90;;;;;;5087992;28;20120;-58
2021/04/27 12:44:38;;;;;;;4.13;1.95;;;16.20;34.80;;;;;;5093159;28;20032;-62
2021/04/27 12:47:21;;;;;;;4.22;2.65;;;16.30;35.60;;;;;;5089097;28;20040;-63
2021/04/27 12:50:12;;;;;;;4.72;2.55;;;16.50;36.70;;;;;;5076590;28;20036;-61
2021/04/27 12:52:52;;;;;;;7.13;2.22;;;16.50;34.70;;;;;;5080461;28;20029;-64
2021/04/27 12:55:20;;;;;;;4.53;2.22;;;16.40;32.70;;;;;;5084571;28;20024;-63